Airfield :
LOGIN :

Register | Disclaimer

   EN    FR    IT 

 










Legend :    VFR   Marginal VFR   IFR   Intensive IFR   Very Intensive IFR
Visi :
Ceiling :
>= 8 km
>= 3000ft
5 to 8 km
1000 to 3000 ft
1500m to 5 km
500 to 1000 ft
800 to 1500m
200 to 500 ft
< 800m
< 200 ft
Symbols :   Thunderstorms  Fog  Heavy snow  Heavy precipitations  Wind > 20 kt
SIGMETs :     Misc.  Thunderstorms  Icing  Turbulence  Mountain Waves  Volcanic Ashes






- Airport Elevation : 1895 ft


LSMM - Meiringen

CURRENT METAR :
  • 100350Z AUTO 09019G30KT 060V120 9999NDV FEW140 19/05 Q1007 RMK

EXPIRED METARs :
  • 100320Z AUTO 09021G34KT 050V140 9999NDV FEW130 19/05 Q1007 RMK
  • 100250Z AUTO 10024G38KT 070V130 9999NDV FEW120 SCT140 BKN170 20/04 Q1007 RMK
  • 100220Z AUTO 10022G35KT 070V130 9999NDV SCT150 20/04 Q1007 RMK
  • 100150Z AUTO 09024G38KT 9999NDV NCD 20/04 Q1006 RMK
  • 100120Z AUTO 09028G44KT 070V140 9999NDV NCD 20/05 Q1006 RMK
  • 100050Z AUTO 10022G35KT 060V120 9999NDV FEW230 20/04 Q1007 RMK

Expired Forecast.



MET'MAP, your aeronautical weather chart ! - Copyright ORBIFLY December 2007 - Disclaimer

ORBIFLY MET'MAP TEAM :

Programming & Development : Alexandra Zaïnal
Concept & original design : Baudouin d'Aumeries
Assistance for programming : Marc-Olivier Méhu
Technical & hardware support : Manuel Goepfert

Contact : metmap@orbifly.com




SOURCES & CREDITS :

   NOAA